createdAt,value
2024-01-15T00:00:13.832Z,70.99023
2024-01-15T00:01:13.948Z,70.37793
2024-01-15T00:02:13.824Z,70.37793
2024-01-15T00:03:13.828Z,70.37305
2024-01-15T00:04:14.082Z,70.37305
2024-01-15T00:05:13.811Z,70.30859
2024-01-15T00:06:13.946Z,70.30859
2024-01-15T00:07:13.903Z,70.22363
2024-01-15T00:08:13.826Z,70.22363
2024-01-15T00:09:13.850Z,70.09863
2024-01-15T00:10:13.818Z,70.09863
2024-01-15T00:11:13.822Z,69.89258
2024-01-15T00:12:13.841Z,69.89258
2024-01-15T00:13:13.814Z,69.89258
2024-01-15T00:14:13.833Z,69.89258
2024-01-15T00:15:13.840Z,69.88184
2024-01-15T00:16:13.815Z,69.88184
2024-01-15T00:17:13.817Z,69.83887
2024-01-15T00:18:13.963Z,69.83887
2024-01-15T00:19:13.898Z,70.06836
2024-01-15T00:20:13.842Z,70.06836
2024-01-15T00:21:13.841Z,69.62012
2024-01-15T00:22:13.821Z,69.62012
2024-01-15T00:23:13.829Z,69.38574
2024-01-15T00:24:13.830Z,69.38574
2024-01-15T00:25:13.850Z,69.17383
2024-01-15T00:26:13.817Z,69.17383
2024-01-15T00:27:13.880Z,68.96875
2024-01-15T00:28:13.833Z,68.96875
2024-01-15T00:29:13.828Z,68.8418
2024-01-15T00:30:13.902Z,68.8418
2024-01-15T00:31:13.939Z,68.94434
2024-01-15T00:32:13.915Z,68.94434
2024-01-15T00:33:14.029Z,69.23438
2024-01-15T00:34:13.883Z,69.23438
2024-01-15T00:35:13.824Z,69.67578
2024-01-15T00:36:13.849Z,69.67578
2024-01-15T00:37:13.830Z,69.61133
2024-01-15T00:38:13.840Z,69.61133
2024-01-15T00:39:13.851Z,69.56934
2024-01-15T00:40:13.841Z,69.56934
2024-01-15T00:41:13.838Z,69.44727
2024-01-15T00:42:13.856Z,69.44727
2024-01-15T00:43:13.825Z,69.22461
2024-01-15T00:44:13.831Z,69.22461
2024-01-15T00:45:13.854Z,68.9873
2024-01-15T00:46:13.836Z,68.9873
2024-01-15T00:47:13.829Z,68.99121
2024-01-15T00:48:13.954Z,68.99121
2024-01-15T00:49:13.997Z,68.88086
2024-01-15T00:50:13.832Z,68.88086
2024-01-15T00:51:13.899Z,69.00781
2024-01-15T00:52:13.862Z,69.00781
2024-01-15T00:53:13.835Z,69.36816
2024-01-15T00:54:13.916Z,69.36816
2024-01-15T00:55:13.838Z,69.42871
2024-01-15T00:56:13.854Z,69.42871
2024-01-15T00:57:13.889Z,69.43945
2024-01-15T00:58:13.836Z,69.43945
2024-01-15T00:59:13.836Z,69.86914
2024-01-15T01:00:13.908Z,69.86914
2024-01-15T01:01:13.924Z,70.30566
2024-01-15T01:02:13.838Z,70.30566
2024-01-15T01:03:13.913Z,70.45313
2024-01-15T01:04:13.895Z,70.45313
2024-01-15T01:05:13.864Z,70.65723
2024-01-15T01:06:13.869Z,70.65723
2024-01-15T01:07:13.840Z,70.8623
2024-01-15T01:08:13.838Z,70.8623
2024-01-15T01:09:13.888Z,70.75684
2024-01-15T01:10:13.848Z,70.75684
2024-01-15T01:11:13.838Z,70.75684
2024-01-15T01:12:13.865Z,70.75684
2024-01-15T01:13:13.839Z,70.52344
2024-01-15T01:14:13.831Z,70.52344
2024-01-15T01:15:13.865Z,70.47363
2024-01-15T01:16:13.841Z,70.47363
2024-01-15T01:17:13.929Z,70.34473
2024-01-15T01:18:14.070Z,70.34473
2024-01-15T01:19:14.042Z,69.91016
2024-01-15T01:20:16.068Z,69.91016
2024-01-15T01:21:15.222Z,69.92969
2024-01-15T01:22:13.845Z,69.92969
2024-01-15T01:23:13.874Z,70.33887
2024-01-15T01:24:13.869Z,70.33887
2024-01-15T01:25:13.889Z,70.64551
2024-01-15T01:26:13.845Z,70.64551
2024-01-15T01:27:13.865Z,71.12012
2024-01-15T01:28:13.841Z,71.12012
2024-01-15T01:29:13.837Z,71.23047
2024-01-15T01:30:13.940Z,71.23047
2024-01-15T01:31:13.972Z,71.22559
2024-01-15T01:32:13.836Z,71.22559
2024-01-15T01:33:13.988Z,71.34375
2024-01-15T01:34:13.916Z,71.34375
2024-01-15T01:35:13.843Z,70.80957
2024-01-15T01:36:13.890Z,70.80957
2024-01-15T01:37:13.863Z,70.80957
2024-01-15T01:38:13.841Z,70.80957
2024-01-15T01:39:13.885Z,70.85352
2024-01-15T01:40:13.893Z,70.85352
2024-01-15T01:41:13.848Z,70.57422
2024-01-15T01:42:13.917Z,70.57422
2024-01-15T01:43:13.852Z,70.65234
2024-01-15T01:44:13.851Z,70.65234
2024-01-15T01:45:13.892Z,70.81641
2024-01-15T01:46:13.861Z,70.81641
2024-01-15T01:47:13.849Z,70.96777
2024-01-15T01:48:13.902Z,70.96777
2024-01-15T01:49:13.977Z,70.82129
2024-01-15T01:50:13.851Z,70.82129
2024-01-15T01:51:13.931Z,70.82129
2024-01-15T01:52:13.846Z,70.82129
2024-01-15T01:53:13.854Z,71.11816
2024-01-15T01:54:13.896Z,71.11816
2024-01-15T01:55:13.849Z,71.26758
2024-01-15T01:56:13.852Z,71.26758
2024-01-15T01:57:13.872Z,71.5498
2024-01-15T01:58:13.856Z,71.5498
2024-01-15T01:59:13.853Z,72.06934
2024-01-15T02:00:13.899Z,72.06934
2024-01-15T02:01:13.950Z,72.79688
2024-01-15T02:02:13.847Z,72.79688
2024-01-15T02:03:13.871Z,73.03516
2024-01-15T02:04:13.938Z,73.03516
2024-01-15T02:05:13.874Z,73.14258
2024-01-15T02:06:13.924Z,73.14258
2024-01-15T02:07:13.905Z,73.30469
2024-01-15T02:08:13.856Z,73.30469
2024-01-15T02:09:13.900Z,73.47559
2024-01-15T02:10:13.852Z,73.47559
2024-01-15T02:11:13.858Z,73.56152
2024-01-15T02:12:13.894Z,73.56152
2024-01-15T02:13:13.853Z,73.43945
2024-01-15T02:14:13.849Z,73.43945
2024-01-15T02:15:13.898Z,73.43457
2024-01-15T02:16:13.850Z,73.43457
2024-01-15T02:17:13.853Z,73.45801
2024-01-15T02:18:14.033Z,73.45801
2024-01-15T02:19:13.922Z,73.52734
2024-01-15T02:20:13.857Z,73.52734
2024-01-15T02:21:13.908Z,74.08105
2024-01-15T02:22:13.848Z,74.08105
2024-01-15T02:23:13.923Z,74.35547
2024-01-15T02:24:13.907Z,74.35547
2024-01-15T02:25:13.860Z,74.77637
2024-01-15T02:26:13.852Z,74.77637
2024-01-15T02:27:13.870Z,75.12598
2024-01-15T02:28:13.854Z,75.12598
2024-01-15T02:29:13.860Z,75.41309
2024-01-15T02:30:13.954Z,75.41309
2024-01-15T02:31:13.973Z,76.00684
2024-01-15T02:32:13.851Z,76.00684
2024-01-15T02:33:14.342Z,76.70898
2024-01-15T02:34:13.977Z,76.70898
2024-01-15T02:35:13.856Z,77.03418
2024-01-15T02:36:13.899Z,77.03418
2024-01-15T02:37:13.850Z,76.9668
2024-01-15T02:38:13.857Z,76.9668
2024-01-15T02:39:13.891Z,76.68359
2024-01-15T02:40:13.853Z,76.68359
2024-01-15T02:41:13.870Z,76.65527
2024-01-15T02:42:13.874Z,76.65527
2024-01-15T02:43:13.861Z,76.58398
2024-01-15T02:44:13.860Z,76.58398
2024-01-15T02:45:13.874Z,76.90332
2024-01-15T02:46:13.870Z,76.90332
2024-01-15T02:47:13.851Z,76.87402
2024-01-15T02:48:13.991Z,76.87402
2024-01-15T02:49:13.930Z,77.64941
2024-01-15T02:50:13.867Z,77.64941
2024-01-15T02:51:13.900Z,77.87012
2024-01-15T02:52:13.857Z,77.87012
2024-01-15T02:53:13.859Z,77.96875
2024-01-15T02:54:13.877Z,77.96875
2024-01-15T02:55:13.877Z,77.92188
2024-01-15T02:56:13.870Z,77.92188
2024-01-15T02:57:13.922Z,78.11523
2024-01-15T02:58:13.862Z,78.11523
2024-01-15T02:59:13.864Z,78.11914
2024-01-15T03:00:13.936Z,78.11914
2024-01-15T03:01:13.966Z,78.17285
2024-01-15T03:02:13.896Z,78.17285
2024-01-15T03:03:13.942Z,78.6582
2024-01-15T03:04:14.214Z,78.6582
2024-01-15T03:05:13.924Z,79.10547
2024-01-15T03:06:13.918Z,79.10547
2024-01-15T03:07:13.882Z,79.22656
2024-01-15T03:08:13.878Z,79.22656
2024-01-15T03:09:13.893Z,79.47266
2024-01-15T03:10:13.864Z,79.47266
2024-01-15T03:11:13.869Z,79.24023
2024-01-15T03:12:13.876Z,79.24023
2024-01-15T03:13:13.869Z,79.23145
2024-01-15T03:14:13.885Z,79.23145
2024-01-15T03:15:13.906Z,79.34375
2024-01-15T03:16:13.865Z,79.34375
2024-01-15T03:17:13.872Z,79.83008
2024-01-15T03:18:13.943Z,79.83008
2024-01-15T03:19:13.933Z,79.91895
2024-01-15T03:20:13.988Z,79.91895
2024-01-15T03:21:13.895Z,80.28027
2024-01-15T03:22:13.876Z,80.28027
2024-01-15T03:23:13.882Z,80.67383
2024-01-15T03:24:13.895Z,80.67383
2024-01-15T03:25:13.879Z,81.29004
2024-01-15T03:26:13.870Z,81.29004
2024-01-15T03:27:13.906Z,81.6377
2024-01-15T03:28:13.902Z,81.6377
2024-01-15T03:29:13.877Z,82.01172
2024-01-15T03:30:13.953Z,82.01172
2024-01-15T03:31:13.988Z,81.92285
2024-01-15T03:32:13.871Z,81.92285
2024-01-15T03:33:13.994Z,81.69336
2024-01-15T03:34:13.952Z,81.69336
2024-01-15T03:35:13.896Z,82.13965
2024-01-15T03:36:13.897Z,82.13965
2024-01-15T03:37:13.896Z,82.36621
2024-01-15T03:38:13.877Z,82.36621
2024-01-15T03:39:13.959Z,82.99707
2024-01-15T03:40:14.073Z,82.99707
2024-01-15T03:41:13.902Z,83.16211
2024-01-15T03:42:13.917Z,83.16211
2024-01-15T03:43:13.880Z,83.17383
2024-01-15T03:44:13.879Z,83.17383
2024-01-15T03:45:13.966Z,83.29492
2024-01-15T03:46:13.885Z,83.29492
2024-01-15T03:47:13.878Z,83.61328
2024-01-15T03:48:14.003Z,83.61328
2024-01-15T03:49:13.929Z,83.92578
2024-01-15T03:50:13.883Z,83.92578
2024-01-15T03:51:13.935Z,83.87793
2024-01-15T03:52:13.883Z,83.87793
2024-01-15T03:53:13.899Z,83.69727
2024-01-15T03:54:13.932Z,83.69727
2024-01-15T03:55:13.892Z,83.30957
2024-01-15T03:56:13.877Z,83.30957
2024-01-15T03:57:13.975Z,83.28223
2024-01-15T03:58:13.875Z,83.28223
2024-01-15T03:59:13.894Z,83.38184
2024-01-15T04:00:13.958Z,83.38184
2024-01-15T04:01:13.999Z,83.35352
2024-01-15T04:02:13.983Z,83.35352
2024-01-15T04:03:14.001Z,83.33984
2024-01-15T04:04:17.462Z,83.33984
2024-01-15T04:05:15.445Z,83.4541
2024-01-15T04:06:13.999Z,83.4541
2024-01-15T04:07:14.030Z,83.6416
2024-01-15T04:08:13.906Z,83.6416
2024-01-15T04:09:13.912Z,84.03418
2024-01-15T04:10:13.878Z,84.03418
2024-01-15T04:11:13.885Z,83.98926
2024-01-15T04:12:13.907Z,83.98926
2024-01-15T04:13:13.880Z,83.72852
2024-01-15T04:14:13.880Z,83.72852
2024-01-15T04:15:13.915Z,83.6416
2024-01-15T04:16:13.888Z,83.6416
2024-01-15T04:17:13.878Z,83.23535
2024-01-15T04:18:13.985Z,83.23535
2024-01-15T04:19:13.972Z,82.88477
2024-01-15T04:20:13.884Z,82.88477
2024-01-15T04:21:13.941Z,82.82617
2024-01-15T04:22:13.898Z,82.82617
2024-01-15T04:23:13.907Z,82.75586
2024-01-15T04:24:13.901Z,82.75586
2024-01-15T04:25:13.887Z,82.62793
2024-01-15T04:26:13.876Z,82.62793
2024-01-15T04:27:13.906Z,82.54688
2024-01-15T04:28:13.902Z,82.54688
2024-01-15T04:29:13.890Z,82.39063
2024-01-15T04:30:14.004Z,82.39063
2024-01-15T04:31:13.931Z,82.30566
2024-01-15T04:32:13.939Z,82.30566
2024-01-15T04:33:14.061Z,82.41895
2024-01-15T04:34:13.980Z,82.41895
2024-01-15T04:35:13.899Z,82.40625
2024-01-15T04:36:13.924Z,82.40625
2024-01-15T04:37:13.909Z,82.01074
2024-01-15T04:38:13.993Z,82.01074
2024-01-15T04:39:13.943Z,81.82227
2024-01-15T04:40:13.906Z,81.82227
2024-01-15T04:41:13.887Z,81.66016
2024-01-15T04:42:13.919Z,81.66016
2024-01-15T04:43:13.892Z,81.6543
2024-01-15T04:44:13.884Z,81.6543
2024-01-15T04:45:13.968Z,81.62793
2024-01-15T04:46:13.892Z,81.62793
2024-01-15T04:47:13.896Z,81.5
2024-01-15T04:48:13.956Z,81.5
2024-01-15T04:49:14.151Z,81.31543
2024-01-15T04:50:13.915Z,81.31543
2024-01-15T04:51:13.954Z,81.1582
2024-01-15T04:52:13.905Z,81.1582
2024-01-15T04:53:13.921Z,81.54102
2024-01-15T04:54:13.980Z,81.54102
2024-01-15T04:55:13.901Z,81.57227
2024-01-15T04:56:13.937Z,81.57227
2024-01-15T04:57:13.950Z,81.64551
2024-01-15T04:58:13.906Z,81.64551
2024-01-15T04:59:13.896Z,81.69824
2024-01-15T05:00:13.972Z,81.69824
2024-01-15T05:01:14.023Z,82.00098
2024-01-15T05:02:13.897Z,82.00098
2024-01-15T05:03:13.978Z,82.31934
2024-01-15T05:04:13.943Z,82.31934
2024-01-15T05:05:13.922Z,82.34473
2024-01-15T05:06:13.974Z,82.34473
2024-01-15T05:07:13.900Z,81.9541
2024-01-15T05:08:13.905Z,81.9541
2024-01-15T05:09:13.926Z,81.67285
2024-01-15T05:10:13.915Z,81.67285
2024-01-15T05:11:13.898Z,81.42285
2024-01-15T05:12:13.911Z,81.42285
2024-01-15T05:13:13.906Z,81.12012
2024-01-15T05:14:13.898Z,81.12012
2024-01-15T05:15:13.937Z,81.21484
2024-01-15T05:16:13.907Z,81.21484
2024-01-15T05:17:13.916Z,81.44531
2024-01-15T05:18:14.064Z,81.44531
2024-01-15T05:19:14.114Z,81.81348
2024-01-15T05:20:14.094Z,81.81348
2024-01-15T05:21:13.970Z,81.77539
2024-01-15T05:22:13.905Z,81.77539
2024-01-15T05:23:13.913Z,81.68848
2024-01-15T05:24:13.928Z,81.68848
2024-01-15T05:25:13.906Z,81.48438
2024-01-15T05:26:13.961Z,81.48438
2024-01-15T05:27:13.947Z,81.4248
2024-01-15T05:28:13.898Z,81.4248
2024-01-15T05:29:13.913Z,81.2666
2024-01-15T05:30:14.011Z,81.2666
2024-01-15T05:31:14.023Z,81.54395
2024-01-15T05:32:13.928Z,81.54395
2024-01-15T05:33:14.134Z,81.39844
2024-01-15T05:34:13.983Z,81.39844
2024-01-15T05:35:13.925Z,80.33984
2024-01-15T05:36:13.953Z,80.33984
2024-01-15T05:37:13.911Z,80.02441
2024-01-15T05:38:13.901Z,80.02441
2024-01-15T05:39:13.914Z,79.4873
2024-01-15T05:40:13.908Z,79.4873
2024-01-15T05:41:13.912Z,79.32324
2024-01-15T05:42:13.953Z,79.32324
2024-01-15T05:43:13.905Z,79.05176
2024-01-15T05:44:13.914Z,79.05176
2024-01-15T05:45:13.955Z,79.13379
2024-01-15T05:46:13.903Z,79.13379
2024-01-15T05:47:13.906Z,79.05762
2024-01-15T05:48:14.089Z,79.05762
2024-01-15T05:49:14.012Z,78.94629
2024-01-15T05:50:13.914Z,78.94629
2024-01-15T05:51:13.927Z,78.41699
2024-01-15T05:52:13.954Z,78.41699
2024-01-15T05:53:13.915Z,78.39648
2024-01-15T05:54:13.980Z,78.39648
2024-01-15T05:55:13.926Z,78.41211
2024-01-15T05:56:13.905Z,78.41211
2024-01-15T05:57:13.952Z,78.14063
2024-01-15T05:58:13.905Z,78.14063
2024-01-15T05:59:15.948Z,77.66406
2024-01-15T06:00:14.023Z,77.66406
2024-01-15T06:01:14.035Z,77.56543
2024-01-15T06:02:13.913Z,77.56543
2024-01-15T06:03:13.924Z,77.39746
2024-01-15T06:04:14.123Z,77.39746
2024-01-15T06:05:14.018Z,77.66309
2024-01-15T06:06:13.979Z,77.66309
2024-01-15T06:07:13.908Z,77.89551
2024-01-15T06:08:13.920Z,77.89551
2024-01-15T06:09:13.955Z,77.42188
2024-01-15T06:10:13.913Z,77.42188
2024-01-15T06:11:13.910Z,76.83594
2024-01-15T06:12:13.932Z,76.83594
2024-01-15T06:13:13.913Z,76.55859
2024-01-15T06:14:13.916Z,76.55859
2024-01-15T06:15:13.961Z,76.24512
2024-01-15T06:16:13.916Z,76.24512
2024-01-15T06:17:13.908Z,75.90625
2024-01-15T06:18:14.046Z,75.90625
2024-01-15T06:19:13.974Z,75.25391
2024-01-15T06:20:13.917Z,75.25391
2024-01-15T06:21:14.079Z,74.92285
2024-01-15T06:22:13.914Z,74.92285
2024-01-15T06:23:13.917Z,74.86133
2024-01-15T06:24:13.927Z,74.86133
2024-01-15T06:25:13.921Z,74.91211
2024-01-15T06:26:13.915Z,74.91211
2024-01-15T06:27:13.951Z,74.75
2024-01-15T06:28:13.932Z,74.75
2024-01-15T06:29:13.915Z,74.47168
2024-01-15T06:30:13.975Z,74.47168
2024-01-15T06:31:14.059Z,74.53027
2024-01-15T06:32:13.957Z,74.53027
2024-01-15T06:33:14.056Z,74.67188
2024-01-15T06:34:14.198Z,74.67188
2024-01-15T06:35:13.920Z,74.72461
2024-01-15T06:36:13.952Z,74.72461
2024-01-15T06:37:13.912Z,74.86426
2024-01-15T06:38:13.919Z,74.86426
2024-01-15T06:39:13.945Z,74.98145
2024-01-15T06:40:13.924Z,74.98145
2024-01-15T06:41:13.916Z,75.37988
2024-01-15T06:42:13.967Z,75.37988
2024-01-15T06:43:13.918Z,75.50879
2024-01-15T06:44:13.926Z,75.50879
2024-01-15T06:45:13.938Z,75.88965
2024-01-15T06:46:13.936Z,75.88965
2024-01-15T06:47:13.919Z,76.00879
2024-01-15T06:48:13.942Z,76.00879
2024-01-15T06:49:14.175Z,76.07031
2024-01-15T06:50:13.925Z,76.07031
2024-01-15T06:51:13.952Z,76.60645
2024-01-15T06:52:13.928Z,76.60645
2024-01-15T06:53:13.928Z,76.38281
2024-01-15T06:54:13.997Z,76.38281
2024-01-15T06:55:13.925Z,76.04492
2024-01-15T06:56:13.925Z,76.04492
2024-01-15T06:57:13.961Z,76.10938
2024-01-15T06:58:13.925Z,76.10938
2024-01-15T06:59:16.783Z,76.45313
2024-01-15T07:00:15.241Z,76.45313
2024-01-15T07:01:14.094Z,76.71777
2024-01-15T07:02:13.922Z,76.71777
2024-01-15T07:03:14.039Z,77.09375
2024-01-15T07:04:13.956Z,77.09375
2024-01-15T07:05:13.940Z,77.32227
2024-01-15T07:06:13.957Z,77.32227
2024-01-15T07:07:13.936Z,78.14355
2024-01-15T07:08:13.924Z,78.14355
2024-01-15T07:09:13.966Z,78.87988
2024-01-15T07:10:13.931Z,78.87988
2024-01-15T07:11:13.930Z,79.21191
2024-01-15T07:12:13.950Z,79.21191
2024-01-15T07:13:13.930Z,79.33105
2024-01-15T07:14:13.931Z,79.33105
2024-01-15T07:15:13.990Z,78.77637
2024-01-15T07:16:16.528Z,78.77637
2024-01-15T07:17:15.105Z,78.71094
2024-01-15T07:18:14.055Z,78.71094
2024-01-15T07:19:14.064Z,78.93457
2024-01-15T07:20:13.992Z,78.93457
2024-01-15T07:21:13.972Z,78.97949
2024-01-15T07:22:13.937Z,78.97949
2024-01-15T07:23:13.941Z,78.97949
2024-01-15T07:24:13.984Z,78.97949
2024-01-15T07:25:13.973Z,79.11914
2024-01-15T07:26:13.939Z,79.11914
2024-01-15T07:27:13.985Z,79.43555
2024-01-15T07:28:13.936Z,79.43555
2024-01-15T07:29:13.934Z,79.93457
2024-01-15T07:30:14.080Z,79.93457
2024-01-15T07:31:14.022Z,80.30273
2024-01-15T07:32:13.937Z,80.30273
2024-01-15T07:33:14.044Z,80.59375
2024-01-15T07:34:14.000Z,80.59375
2024-01-15T07:35:13.935Z,80.83887
2024-01-15T07:36:14.044Z,80.83887
2024-01-15T07:37:13.941Z,80.94727
2024-01-15T07:38:13.952Z,80.94727
2024-01-15T07:39:14.040Z,81.13477
2024-01-15T07:40:14.005Z,81.13477
2024-01-15T07:41:13.947Z,81.5332
2024-01-15T07:42:13.971Z,81.5332
2024-01-15T07:43:13.946Z,81.69336
2024-01-15T07:44:13.946Z,81.69336
2024-01-15T07:45:13.996Z,81.69531
2024-01-15T07:46:14.002Z,81.69531
2024-01-15T07:47:13.954Z,81.56836
2024-01-15T07:48:14.092Z,81.56836
2024-01-15T07:49:14.096Z,81.47949
2024-01-15T07:50:14.008Z,81.47949
2024-01-15T07:51:13.999Z,81.50977
2024-01-15T07:52:13.951Z,81.50977
2024-01-15T07:53:13.951Z,81.67188
2024-01-15T07:54:13.976Z,81.67188
2024-01-15T07:55:13.953Z,82.03613
2024-01-15T07:56:13.945Z,82.03613
2024-01-15T07:57:13.980Z,82.43652
2024-01-15T07:58:16.572Z,82.43652
2024-01-15T07:59:15.470Z,82.18848
2024-01-15T08:00:13.976Z,82.18848
2024-01-15T08:01:14.493Z,82.13672
2024-01-15T08:02:13.943Z,82.13672
2024-01-15T08:03:14.125Z,82.0625
2024-01-15T08:04:14.096Z,82.0625
2024-01-15T08:05:13.940Z,81.7207
2024-01-15T08:06:14.052Z,81.7207
2024-01-15T08:07:13.985Z,81.60059
2024-01-15T08:08:13.953Z,81.60059
2024-01-15T08:09:13.964Z,81.79883
2024-01-15T08:10:13.943Z,81.79883
2024-01-15T08:11:13.961Z,81.79297
2024-01-15T08:12:13.999Z,81.79297
2024-01-15T08:13:13.944Z,81.93945
2024-01-15T08:14:13.946Z,81.93945
2024-01-15T08:15:13.983Z,81.93945
2024-01-15T08:16:14.010Z,81.93945
2024-01-15T08:17:13.942Z,81.97363
2024-01-15T08:18:14.106Z,81.97363
2024-01-15T08:19:14.026Z,81.9873
2024-01-15T08:20:14.142Z,81.9873
2024-01-15T08:21:13.994Z,81.56543
2024-01-15T08:22:13.951Z,81.56543
2024-01-15T08:23:13.951Z,81.6748
2024-01-15T08:24:13.986Z,81.6748
2024-01-15T08:25:13.945Z,81.85059
2024-01-15T08:26:13.947Z,81.85059
2024-01-15T08:27:13.985Z,81.85059
2024-01-15T08:28:13.941Z,81.85059
2024-01-15T08:29:13.942Z,81.36523
2024-01-15T08:30:14.067Z,81.36523
2024-01-15T08:31:14.070Z,81.08594
2024-01-15T08:32:13.947Z,81.08594
2024-01-15T08:33:21.316Z,80.99805
2024-01-15T08:34:15.154Z,80.99805
2024-01-15T08:35:14.100Z,80.81836
2024-01-15T08:36:13.997Z,80.81836
2024-01-15T08:37:13.956Z,80.57031
2024-01-15T08:38:13.951Z,80.57031
2024-01-15T08:39:13.994Z,80.83398
2024-01-15T08:40:13.956Z,80.83398
2024-01-15T08:41:14.013Z,80.89355
2024-01-15T08:42:13.960Z,80.89355
2024-01-15T08:43:13.958Z,81.52734
2024-01-15T08:44:13.948Z,81.52734
2024-01-15T08:45:14.035Z,82.15137
2024-01-15T08:46:13.952Z,82.15137
2024-01-15T08:47:13.950Z,82.33203
2024-01-15T08:48:14.061Z,82.33203
2024-01-15T08:49:14.071Z,82.72168
2024-01-15T08:50:13.949Z,82.72168
2024-01-15T08:51:13.954Z,82.84082
2024-01-15T08:52:13.998Z,82.84082
2024-01-15T08:53:13.945Z,83.41895
2024-01-15T08:54:13.980Z,83.41895
2024-01-15T08:55:13.947Z,83.97949
2024-01-15T08:56:13.957Z,83.97949
2024-01-15T08:57:14.004Z,84.12891
2024-01-15T08:58:13.954Z,84.12891
2024-01-15T08:59:13.952Z,84.83008
2024-01-15T09:00:13.992Z,84.83008
2024-01-15T09:01:14.098Z,84.96582
2024-01-15T09:02:13.991Z,84.96582
2024-01-15T09:03:13.985Z,85.27441
2024-01-15T09:04:14.073Z,85.27441
2024-01-15T09:05:14.051Z,85.18359
2024-01-15T09:06:14.067Z,85.18359
2024-01-15T09:07:13.963Z,84.77246
2024-01-15T09:08:13.975Z,84.77246
2024-01-15T09:09:14.025Z,84.32129
2024-01-15T09:10:13.983Z,84.32129
2024-01-15T09:11:13.956Z,83.82715
2024-01-15T09:12:13.962Z,83.82715
2024-01-15T09:13:13.963Z,83.98535
2024-01-15T09:14:15.514Z,83.98535
2024-01-15T09:15:15.309Z,84.87402
2024-01-15T09:16:14.068Z,84.87402
2024-01-15T09:17:13.962Z,85.44043
2024-01-15T09:18:14.026Z,85.44043
2024-01-15T09:19:14.060Z,85.82813
2024-01-15T09:20:13.958Z,85.82813
2024-01-15T09:21:14.016Z,86.06543
2024-01-15T09:22:13.978Z,86.06543
2024-01-15T09:23:13.963Z,86.06543
2024-01-15T09:24:13.999Z,86.06543
2024-01-15T09:25:14.027Z,86.32715
2024-01-15T09:26:14.034Z,86.32715
2024-01-15T09:27:13.999Z,86.47266
2024-01-15T09:28:13.969Z,86.47266
2024-01-15T09:29:15.048Z,86.32227
2024-01-15T09:30:14.186Z,86.32227
2024-01-15T09:31:14.072Z,86.33105
2024-01-15T09:32:14.042Z,86.33105
2024-01-15T09:33:14.181Z,86.1543
2024-01-15T09:34:14.049Z,86.1543
2024-01-15T09:35:13.973Z,85.85254
2024-01-15T09:36:14.112Z,85.85254
2024-01-15T09:37:22.767Z,85.97852
2024-01-15T09:38:15.274Z,85.97852
2024-01-15T09:39:14.014Z,85.83008
2024-01-15T09:40:13.961Z,85.83008
2024-01-15T09:41:13.963Z,85.33105
2024-01-15T09:42:14.008Z,85.33105
2024-01-15T09:43:13.969Z,85.04102
2024-01-15T09:44:13.963Z,85.04102
2024-01-15T09:45:14.105Z,84.39258
2024-01-15T09:46:15.276Z,84.39258
2024-01-15T09:47:13.975Z,84.39258
2024-01-15T09:48:14.112Z,84.39258
2024-01-15T09:49:14.029Z,84.38086
2024-01-15T09:50:14.099Z,84.38086
2024-01-15T09:51:14.042Z,83.97949
2024-01-15T09:52:14.066Z,83.97949
2024-01-15T09:53:13.986Z,83.62012
2024-01-15T09:54:13.979Z,83.62012
2024-01-15T09:55:13.962Z,83.62012
2024-01-15T09:56:13.964Z,83.62012
2024-01-15T09:57:14.001Z,83.5332
2024-01-15T09:58:13.980Z,83.5332
2024-01-15T09:59:13.979Z,83.36914
2024-01-15T10:00:14.035Z,83.36914
2024-01-15T10:01:14.074Z,83.32813
2024-01-15T10:02:13.968Z,83.32813
2024-01-15T10:03:14.077Z,83.66309
2024-01-15T10:04:14.057Z,83.66309
2024-01-15T10:05:13.988Z,83.79395
2024-01-15T10:06:14.055Z,83.79395
2024-01-15T10:07:13.976Z,83.93945
2024-01-15T10:08:13.962Z,83.93945
2024-01-15T10:09:13.968Z,84.67676
2024-01-15T10:10:13.984Z,84.67676
2024-01-15T10:11:13.983Z,84.66992
2024-01-15T10:12:14.012Z,84.66992
2024-01-15T10:13:13.963Z,84.53223
2024-01-15T10:14:13.997Z,84.53223
2024-01-15T10:15:13.989Z,84.18457
2024-01-15T10:16:13.970Z,84.18457
2024-01-15T10:17:13.975Z,83.64063
2024-01-15T10:18:14.080Z,83.64063
2024-01-15T10:19:14.134Z,83.80078
2024-01-15T10:20:14.182Z,83.80078
2024-01-15T10:21:14.005Z,83.93555
2024-01-15T10:22:13.962Z,83.93555
2024-01-15T10:23:13.964Z,83.93164
2024-01-15T10:24:14.000Z,83.93164
2024-01-15T10:25:14.100Z,83.62012
2024-01-15T10:26:16.198Z,83.62012
2024-01-15T10:27:16.266Z,83.75195
2024-01-15T10:28:13.970Z,83.75195
2024-01-15T10:29:13.973Z,83.83594
2024-01-15T10:30:14.051Z,83.83594
2024-01-15T10:31:14.071Z,84.19434
2024-01-15T10:32:13.969Z,84.19434
2024-01-15T10:33:14.144Z,84.3252
2024-01-15T10:34:14.128Z,84.3252
2024-01-15T10:35:13.988Z,84.37305
2024-01-15T10:36:14.007Z,84.37305
2024-01-15T10:37:13.967Z,84.4707
2024-01-15T10:38:13.974Z,84.4707
2024-01-15T10:39:13.995Z,84.7627
2024-01-15T10:40:13.977Z,84.7627
2024-01-15T10:41:13.989Z,84.77637
2024-01-15T10:42:13.987Z,84.77637
2024-01-15T10:43:13.984Z,84.60547
2024-01-15T10:44:13.981Z,84.60547
2024-01-15T10:45:14.020Z,84.73535
2024-01-15T10:46:13.983Z,84.73535
2024-01-15T10:47:13.983Z,84.78516
2024-01-15T10:48:14.074Z,84.78516
2024-01-15T10:49:14.122Z,85.43652
2024-01-15T10:50:13.985Z,85.43652
2024-01-15T10:51:13.996Z,85.71484
2024-01-15T10:52:13.986Z,85.71484
2024-01-15T10:53:13.988Z,85.71484
2024-01-15T10:54:14.001Z,85.71484
2024-01-15T10:55:17.977Z,85.38867
2024-01-15T10:56:15.129Z,85.38867
2024-01-15T10:57:14.031Z,85.38867
2024-01-15T10:58:13.981Z,85.38867
2024-01-15T10:59:13.980Z,85.3916
2024-01-15T11:00:14.051Z,85.3916
2024-01-15T11:01:14.093Z,85.54492
2024-01-15T11:02:14.037Z,85.54492
2024-01-15T11:03:14.062Z,85.86328
2024-01-15T11:04:14.074Z,85.86328
2024-01-15T11:05:13.990Z,86.27539
2024-01-15T11:06:14.201Z,86.27539
2024-01-15T11:07:14.091Z,86.53223
2024-01-15T11:08:13.987Z,86.53223
2024-01-15T11:09:14.148Z,86.60742
2024-01-15T11:10:13.978Z,86.60742
2024-01-15T11:11:13.990Z,86.81934
2024-01-15T11:12:14.060Z,86.81934
2024-01-15T11:13:13.982Z,86.81934
2024-01-15T11:14:13.986Z,86.81934
2024-01-15T11:15:14.049Z,86.80859
2024-01-15T11:16:14.005Z,86.80859
2024-01-15T11:17:14.005Z,86.94434
2024-01-15T11:18:14.137Z,86.94434
2024-01-15T11:19:14.097Z,86.88672
2024-01-15T11:20:14.007Z,86.88672
2024-01-15T11:21:14.036Z,86.63086
2024-01-15T11:22:13.992Z,86.63086
2024-01-15T11:23:13.998Z,86.65137
2024-01-15T11:24:14.076Z,86.65137
2024-01-15T11:25:14.009Z,87.05957
2024-01-15T11:26:14.000Z,87.05957
2024-01-15T11:27:14.076Z,87.06543
2024-01-15T11:28:13.983Z,87.06543
2024-01-15T11:29:14.009Z,87.18848
2024-01-15T11:30:14.372Z,87.18848
2024-01-15T11:31:14.028Z,87.24023
2024-01-15T11:32:13.993Z,87.24023
2024-01-15T11:33:14.122Z,87.53906
2024-01-15T11:34:14.168Z,87.53906
2024-01-15T11:35:13.998Z,87.5918
2024-01-15T11:36:14.006Z,87.5918
2024-01-15T11:37:13.995Z,87.46387
2024-01-15T11:38:13.992Z,87.46387
2024-01-15T11:39:14.006Z,86.9834
2024-01-15T11:40:13.998Z,86.9834
2024-01-15T11:41:14.003Z,87.02344
2024-01-15T11:42:14.100Z,87.02344
2024-01-15T11:43:13.995Z,87.37598
2024-01-15T11:44:13.996Z,87.37598
2024-01-15T11:45:14.010Z,87.38477
2024-01-15T11:46:14.003Z,87.38477